createdAt,value
2018-01-28T00:02:47.286Z,0.06
2018-01-28T00:12:20.262Z,0.06
2018-01-28T00:21:53.578Z,0.06
2018-01-28T00:31:26.283Z,-0.04
2018-01-28T00:40:55.479Z,0.06
2018-01-28T00:50:36.509Z,0.06
2018-01-28T01:00:05.868Z,-0.04
2018-01-28T01:09:42.508Z,-0.04
2018-01-28T01:19:19.389Z,0.06
2018-01-28T01:28:59.971Z,0.06
2018-01-28T01:38:28.896Z,0.06
2018-01-28T01:48:09.527Z,0.16
2018-01-28T01:57:42.535Z,0.16
2018-01-28T02:07:15.727Z,0.26
2018-01-28T02:16:44.485Z,0.36
2018-01-28T02:26:24.740Z,0.16
2018-01-28T02:35:57.748Z,0.06
2018-01-28T02:45:32.706Z,-0.04
2018-01-28T02:54:59.881Z,-0.04
2018-01-28T03:04:40.294Z,-0.13
2018-01-28T03:14:08.793Z,-0.33
2018-01-28T03:23:49.467Z,-0.43
2018-01-28T03:33:21.965Z,-0.43
2018-01-28T03:42:54.657Z,-0.43
2018-01-28T03:52:27.741Z,-0.33
2018-01-28T04:02:00.703Z,-0.43
2018-01-28T04:11:33.729Z,-0.43
2018-01-28T04:21:02.884Z,-0.43
2018-01-28T04:30:43.631Z,-0.43
2018-01-28T04:40:16.690Z,-0.43
2018-01-28T04:49:49.625Z,-0.53
2018-01-28T04:59:22.299Z,-0.53
2018-01-28T05:08:55.316Z,-0.53
2018-01-28T05:18:28.640Z,-0.53
2018-01-28T05:28:01.989Z,-0.62
2018-01-28T05:37:31.036Z,-0.72
2018-01-28T05:47:11.503Z,-0.62
2018-01-28T05:56:44.561Z,-0.62
2018-01-28T06:06:13.999Z,-0.62
2018-01-28T06:15:50.693Z,-0.53
2018-01-28T06:25:31.799Z,-0.53
2018-01-28T06:35:04.784Z,-0.43
2018-01-28T06:44:34.110Z,-0.33
2018-01-28T06:54:11.437Z,-0.23
2018-01-28T07:03:48.336Z,-0.23
2018-01-28T07:13:29.552Z,-0.13
2018-01-28T07:23:02.608Z,-0.13
2018-01-28T07:32:31.300Z,-0.14
2018-01-28T07:42:08.126Z,-0.04
2018-01-28T07:51:44.553Z,-0.04
2018-01-28T08:01:25.094Z,0.06
2018-01-28T08:10:54.023Z,0.16
2018-01-28T08:20:34.753Z,0.16
2018-01-28T08:30:03.449Z,0.45
2018-01-28T08:39:39.869Z,0.75
2018-01-28T08:49:19.904Z,1.04
2018-01-28T08:58:49.028Z,1.14
2018-01-28T09:08:25.488Z,1.23
2018-01-28T09:18:05.736Z,1.63
2018-01-28T09:27:33.556Z,1.62
2018-01-28T09:37:09.899Z,1.92
2018-01-28T09:46:46.307Z,1.92
2018-01-28T09:56:22.390Z,1.63
2018-01-28T10:05:59.441Z,2.41
2018-01-28T10:15:36.423Z,2.51
2018-01-28T10:25:13.230Z,2.70
2018-01-28T10:34:49.874Z,2.99
2018-01-28T10:44:30.346Z,3.19
2018-01-28T10:54:03.093Z,2.99
2018-01-28T11:03:44.126Z,3.09
2018-01-28T11:13:05.759Z,3.48
2018-01-28T11:22:46.391Z,4.07
2018-01-28T11:32:15.919Z,5.15
2018-01-28T11:41:54.652Z,5.73
2018-01-28T11:51:35.978Z,6.61
2018-01-28T12:01:05.149Z,5.93
2018-01-28T12:10:43.154Z,6.42
2018-01-28T12:20:23.632Z,6.22
2018-01-28T12:29:50.315Z,5.93
2018-01-28T12:39:26.345Z,5.64
2018-01-28T12:49:08.514Z,6.32
2018-01-28T12:58:39.204Z,6.81
2018-01-28T13:08:14.549Z,7.20
2018-01-28T13:17:55.054Z,6.42
2018-01-28T13:27:23.493Z,6.52
2018-01-28T13:36:57.840Z,5.73
2018-01-28T13:46:38.294Z,5.54
2018-01-28T13:56:06.852Z,5.83
2018-01-28T14:05:42.592Z,5.44
2018-01-28T14:15:22.652Z,5.05
2018-01-28T14:24:49.380Z,4.66
2018-01-28T14:34:24.518Z,3.78
2018-01-28T14:43:59.463Z,3.58
2018-01-28T14:53:34.213Z,3.09
2018-01-28T15:03:13.025Z,2.90
2018-01-28T15:12:48.963Z,2.60
2018-01-28T15:22:24.810Z,2.60
2018-01-28T15:32:04.131Z,2.31
2018-01-28T15:41:36.586Z,2.02
2018-01-28T15:51:08.983Z,1.92
2018-01-28T16:00:41.728Z,1.82
2018-01-28T16:10:13.844Z,1.72
2018-01-28T16:19:42.369Z,1.53
2018-01-28T16:29:18.612Z,1.43
2018-01-28T16:38:55.683Z,1.33
2018-01-28T16:48:32.271Z,1.23
2018-01-28T16:58:08.714Z,1.14
2018-01-28T17:07:43.700Z,0.94
2018-01-28T17:17:23.598Z,0.65
2018-01-28T17:27:00.079Z,0.75
2018-01-28T17:36:36.443Z,0.55
2018-01-28T17:46:12.546Z,0.36
2018-01-28T17:55:48.375Z,0.16
2018-01-28T18:05:23.272Z,0.16
2018-01-28T18:15:03.661Z,0.06
2018-01-28T18:24:40.292Z,0.06
2018-01-28T18:34:16.947Z,-0.04
2018-01-28T18:43:53.461Z,-0.14
2018-01-28T18:53:30.152Z,-0.04
2018-01-28T19:03:07.155Z,0.06
2018-01-28T19:12:43.889Z,0.06
2018-01-28T19:22:20.781Z,0.06
2018-01-28T19:31:57.517Z,0.26
2018-01-28T19:41:34.197Z,0.26
2018-01-28T19:51:11.153Z,0.36
2018-01-28T20:00:47.821Z,0.26
2018-01-28T20:10:24.429Z,0.26
2018-01-28T20:20:01.159Z,0.16
2018-01-28T20:29:37.752Z,0.16
2018-01-28T20:39:14.533Z,0.16
2018-01-28T20:48:51.434Z,0.16
2018-01-28T20:58:26.719Z,0.06
2018-01-28T21:08:07.148Z,0.06
2018-01-28T21:17:43.462Z,-0.04
2018-01-28T21:27:19.905Z,-0.04
2018-01-28T21:37:00.780Z,0.06
2018-01-28T21:46:30.247Z,0.06
2018-01-28T21:56:06.441Z,0.06
2018-01-28T22:05:43.195Z,0.06
2018-01-28T22:15:19.801Z,0.06
2018-01-28T22:24:56.479Z,0.16
2018-01-28T22:34:32.752Z,0.26
2018-01-28T22:44:09.404Z,0.26
2018-01-28T22:53:46.435Z,0.45
2018-01-28T23:03:22.903Z,0.35
2018-01-28T23:12:59.300Z,0.36
2018-01-28T23:22:36.168Z,0.35
2018-01-28T23:32:12.735Z,0.45
2018-01-28T23:41:49.884Z,0.45
2018-01-28T23:51:26.191Z,0.45
